Denton, Kansas
Current Conditions -  °F | °C
As of 12:53 AM on Friday 19 Dec 2014 (Local Time) from KSTJ Reporting Station
Haze Haze  
Wind Chill: 31°   Ceiling: 900
Heat Index: 31°   Visibility: 6mi
Dew Point: 28°   Wind: 0mph
Humidity: 89%   Direction: NA
Pressure: 30.27"   Gusts: NA
Location:  39.73°N, 95.27°W
Report Text: KSTJ 190653Z AUTO 00000KT 6SM BR OVC009 M01/M02 A3027 RMK AO2 SLP259 T10061022
Loading
Personal Weather Stations






























Interactive Weather Map New forecast layout! Learn more

10-Day Weather Forecast

Advertisements
Track Severe Weather on mobile